sensor_id;sensor_type;location;lat;lon;timestamp;pressure;altitude;pressure_sealevel;temperature;humidity
7662;BME280;30314;48.184;11.510;2024-03-07T00:00:13;96275.53;;;3.36;100.00
7662;BME280;30314;48.184;11.510;2024-03-07T00:02:45;96257.94;;;3.32;100.00
7662;BME280;30314;48.184;11.510;2024-03-07T00:05:16;96246.47;;;3.21;100.00
7662;BME280;30314;48.184;11.510;2024-03-07T00:07:44;96270.88;;;3.38;100.00
7662;BME280;30314;48.184;11.510;2024-03-07T00:10:11;96269.72;;;3.34;100.00
7662;BME280;30314;48.184;11.510;2024-03-07T00:12:39;96265.66;;;3.27;100.00
7662;BME280;30314;48.184;11.510;2024-03-07T00:15:08;96266.34;;;3.34;100.00
7662;BME280;30314;48.184;11.510;2024-03-07T00:17:36;96260.09;;;3.35;100.00
7662;BME280;30314;48.184;11.510;2024-03-07T00:20:04;96262.00;;;3.28;100.00
7662;BME280;30314;48.184;11.510;2024-03-07T00:22:35;96271.09;;;3.37;100.00
7662;BME280;30314;48.184;11.510;2024-03-07T00:25:03;96267.47;;;3.38;100.00
7662;BME280;30314;48.184;11.510;2024-03-07T00:27:32;96263.16;;;3.32;100.00
7662;BME280;30314;48.184;11.510;2024-03-07T00:29:59;96259.75;;;3.31;100.00
7662;BME280;30314;48.184;11.510;2024-03-07T00:32:26;96257.00;;;3.38;100.00
7662;BME280;30314;48.184;11.510;2024-03-07T00:34:56;96262.56;;;3.42;100.00
7662;BME280;30314;48.184;11.510;2024-03-07T00:37:25;96248.84;;;3.34;100.00
7662;BME280;30314;48.184;11.510;2024-03-07T00:39:52;96253.97;;;3.29;100.00
7662;BME280;30314;48.184;11.510;2024-03-07T00:42:18;96268.94;;;3.34;100.00
7662;BME280;30314;48.184;11.510;2024-03-07T00:44:45;96258.16;;;3.30;100.00
7662;BME280;30314;48.184;11.510;2024-03-07T00:47:13;96267.47;;;3.38;100.00
7662;BME280;30314;48.184;11.510;2024-03-07T00:49:39;96267.34;;;3.45;100.00
7662;BME280;30314;48.184;11.510;2024-03-07T00:52:06;96258.50;;;3.34;100.00
7662;BME280;30314;48.184;11.510;2024-03-07T00:54:33;96240.91;;;3.29;100.00
7662;BME280;30314;48.184;11.510;2024-03-07T00:57:00;96250.44;;;3.35;100.00
7662;BME280;30314;48.184;11.510;2024-03-07T00:59:26;96229.34;;;3.25;100.00
7662;BME280;30314;48.184;11.510;2024-03-07T01:01:53;96219.34;;;3.22;100.00
7662;BME280;30314;48.184;11.510;2024-03-07T01:04:20;96237.97;;;3.37;100.00
7662;BME280;30314;48.184;11.510;2024-03-07T01:06:46;96213.56;;;3.20;100.00
7662;BME280;30314;48.184;11.510;2024-03-07T01:09:13;96235.34;;;3.37;100.00
7662;BME280;30314;48.184;11.510;2024-03-07T01:11:42;96243.75;;;3.40;100.00
7662;BME280;30314;48.184;11.510;2024-03-07T01:14:09;96237.97;;;3.37;100.00
7662;BME280;30314;48.184;11.510;2024-03-07T01:16:36;96235.34;;;3.37;100.00
7662;BME280;30314;48.184;11.510;2024-03-07T01:19:02;96238.63;;;3.33;100.00
7662;BME280;30314;48.184;11.510;2024-03-07T01:21:35;96244.22;;;3.36;100.00
7662;BME280;30314;48.184;11.510;2024-03-07T01:24:05;96235.78;;;3.34;100.00
7662;BME280;30314;48.184;11.510;2024-03-07T01:26:32;96224.91;;;3.37;100.00
7662;BME280;30314;48.184;11.510;2024-03-07T01:29:00;96227.81;;;3.41;100.00
7662;BME280;30314;48.184;11.510;2024-03-07T01:31:26;96222.84;;;3.40;100.00
7662;BME280;30314;48.184;11.510;2024-03-07T01:33:53;96226.94;;;3.35;100.00
7662;BME280;30314;48.184;11.510;2024-03-07T01:36:21;96204.28;;;3.24;100.00
7662;BME280;30314;48.184;11.510;2024-03-07T01:38:48;96220.25;;;3.28;100.00
7662;BME280;30314;48.184;11.510;2024-03-07T01:41:15;96224.56;;;3.34;100.00
7662;BME280;30314;48.184;11.510;2024-03-07T01:43:42;96208.91;;;3.22;100.00
7662;BME280;30314;48.184;11.510;2024-03-07T01:46:10;96215.72;;;3.35;100.00
7662;BME280;30314;48.184;11.510;2024-03-07T01:48:37;96222.50;;;3.36;100.00
7662;BME280;30314;48.184;11.510;2024-03-07T01:51:05;96205.34;;;3.40;100.00
7662;BME280;30314;48.184;11.510;2024-03-07T01:53:32;96183.25;;;3.31;100.00
7662;BME280;30314;48.184;11.510;2024-03-07T01:56:00;96179.28;;;3.28;100.00
7662;BME280;30314;48.184;11.510;2024-03-07T01:58:29;96190.41;;;3.35;100.00
7662;BME280;30314;48.184;11.510;2024-03-07T02:00:56;96188.91;;;3.40;100.00
7662;BME280;30314;48.184;11.510;2024-03-07T02:03:23;96193.31;;;3.39;100.00
7662;BME280;30314;48.184;11.510;2024-03-07T02:05:49;96199.69;;;3.43;100.00
7662;BME280;30314;48.184;11.510;2024-03-07T02:08:18;96197.59;;;3.57;100.00
7662;BME280;30314;48.184;11.510;2024-03-07T02:10:45;96185.34;;;3.46;100.00
7662;BME280;30314;48.184;11.510;2024-03-07T02:13:12;96190.41;;;3.35;100.00
7662;BME280;30314;48.184;11.510;2024-03-07T02:15:39;96181.22;;;3.33;100.00
7662;BME280;30314;48.184;11.510;2024-03-07T02:18:06;96175.53;;;3.36;100.00
7662;BME280;30314;48.184;11.510;2024-03-07T02:20:33;96180.41;;;3.32;100.00
7662;BME280;30314;48.184;11.510;2024-03-07T02:22:59;96171.09;;;3.36;100.00
7662;BME280;30314;48.184;11.510;2024-03-07T02:25:26;96164.78;;;3.20;100.00
7662;BME280;30314;48.184;11.510;2024-03-07T02:27:53;96176.66;;;3.28;100.00
7662;BME280;30314;48.184;11.510;2024-03-07T02:30:20;96173.59;;;3.31;100.00
7662;BME280;30314;48.184;11.510;2024-03-07T02:32:47;96168.84;;;3.28;100.00
7662;BME280;30314;48.184;11.510;2024-03-07T02:35:20;96169.06;;;3.27;100.00
7662;BME280;30314;48.184;11.510;2024-03-07T02:37:46;96167.25;;;3.27;100.00
7662;BME280;30314;48.184;11.510;2024-03-07T02:40:14;96166.13;;;3.23;100.00
7662;BME280;30314;48.184;11.510;2024-03-07T02:42:41;96177.34;;;3.23;100.00
7662;BME280;30314;48.184;11.510;2024-03-07T02:45:08;96159.91;;;3.12;100.00
7662;BME280;30314;48.184;11.510;2024-03-07T02:47:34;96161.34;;;3.20;100.00
7662;BME280;30314;48.184;11.510;2024-03-07T02:50:02;96172.13;;;3.23;100.00
7662;BME280;30314;48.184;11.510;2024-03-07T02:52:29;96166.03;;;3.18;100.00
7662;BME280;30314;48.184;11.510;2024-03-07T02:54:56;96163.78;;;3.09;100.00
7662;BME280;30314;48.184;11.510;2024-03-07T02:57:22;96157.97;;;3.07;100.00
7662;BME280;30314;48.184;11.510;2024-03-07T02:59:49;96154.25;;;3.03;100.00
7662;BME280;30314;48.184;11.510;2024-03-07T03:02:15;96160.59;;;3.07;100.00
7662;BME280;30314;48.184;11.510;2024-03-07T03:04:42;96164.47;;;3.05;100.00
7662;BME280;30314;48.184;11.510;2024-03-07T03:07:08;96156.94;;;3.08;100.00
7662;BME280;30314;48.184;11.510;2024-03-07T03:09:35;96157.53;;;3.11;100.00
7662;BME280;30314;48.184;11.510;2024-03-07T03:12:06;96154.00;;;3.17;100.00
7662;BME280;30314;48.184;11.510;2024-03-07T03:14:33;96144.63;;;3.04;100.00
7662;BME280;30314;48.184;11.510;2024-03-07T03:16:59;96136.44;;;3.00;100.00
7662;BME280;30314;48.184;11.510;2024-03-07T03:19:26;96156.72;;;3.10;100.00
7662;BME280;30314;48.184;11.510;2024-03-07T03:21:52;96155.97;;;3.09;100.00
7662;BME280;30314;48.184;11.510;2024-03-07T03:24:19;96160.47;;;3.14;100.00
7662;BME280;30314;48.184;11.510;2024-03-07T03:26:46;96159.78;;;3.19;100.00
7662;BME280;30314;48.184;11.510;2024-03-07T03:29:13;96166.28;;;3.16;100.00
7662;BME280;30314;48.184;11.510;2024-03-07T03:31:40;96166.50;;;3.15;100.00
7662;BME280;30314;48.184;11.510;2024-03-07T03:34:07;96158.09;;;3.13;100.00
7662;BME280;30314;48.184;11.510;2024-03-07T03:36:35;96157.41;;;3.17;100.00
7662;BME280;30314;48.184;11.510;2024-03-07T03:39:01;96171.03;;;3.19;100.00
7662;BME280;30314;48.184;11.510;2024-03-07T03:41:28;96160.25;;;3.16;100.00
7662;BME280;30314;48.184;11.510;2024-03-07T03:43:54;96157.28;;;3.12;100.00
7662;BME280;30314;48.184;11.510;2024-03-07T03:46:22;96142.44;;;3.01;100.00
7662;BME280;30314;48.184;11.510;2024-03-07T03:48:49;96155.97;;;3.09;100.00
7662;BME280;30314;48.184;11.510;2024-03-07T03:51:17;96162.41;;;3.07;100.00
7662;BME280;30314;48.184;11.510;2024-03-07T03:53:43;96164.78;;;3.08;100.00
7662;BME280;30314;48.184;11.510;2024-03-07T03:56:10;96155.06;;;3.04;100.00
7662;BME280;30314;48.184;11.510;2024-03-07T03:58:41;96154.94;;;3.11;100.00
7662;BME280;30314;48.184;11.510;2024-03-07T04:01:08;96160.16;;;3.11;100.00
7662;BME280;30314;48.184;11.510;2024-03-07T04:03:39;96149.38;;;3.07;100.00
7662;BME280;30314;48.184;11.510;2024-03-07T04:06:06;96140.22;;;2.92;100.00
7662;BME280;30314;48.184;11.510;2024-03-07T04:08:33;96158.09;;;3.01;100.00
7662;BME280;30314;48.184;11.510;2024-03-07T04:11:06;96164.59;;;2.98;100.00
7662;BME280;30314;48.184;11.510;2024-03-07T04:13:37;96155.50;;;3.01;100.00
7662;BME280;30314;48.184;11.510;2024-03-07T04:16:04;96161.94;;;3.10;100.00
7662;BME280;30314;48.184;11.510;2024-03-07T04:18:31;96169.69;;;3.05;100.00
7662;BME280;30314;48.184;11.510;2024-03-07T04:20:59;96129.91;;;2.86;100.00
7662;BME280;30314;48.184;11.510;2024-03-07T04:23:26;96155.38;;;3.07;100.00
7662;BME280;30314;48.184;11.510;2024-03-07T04:25:54;96160.50;;;3.02;100.00
7662;BME280;30314;48.184;11.510;2024-03-07T04:28:23;96168.53;;;3.01;100.00
7662;BME280;30314;48.184;11.510;2024-03-07T04:30:50;96138.53;;;2.74;100.00
7662;BME280;30314;48.184;11.510;2024-03-07T04:33:19;96161.53;;;2.77;100.00
7662;BME280;30314;48.184;11.510;2024-03-07T04:35:46;96143.63;;;2.69;100.00
7662;BME280;30314;48.184;11.510;2024-03-07T04:38:12;96156.78;;;2.74;100.00
7662;BME280;30314;48.184;11.510;2024-03-07T04:40:42;96153.16;;;2.75;100.00
7662;BME280;30314;48.184;11.510;2024-03-07T04:43:11;96150.44;;;2.70;100.00
7662;BME280;30314;48.184;11.510;2024-03-07T04:45:38;96148.94;;;2.62;100.00
7662;BME280;30314;48.184;11.510;2024-03-07T04:48:05;96137.03;;;2.55;100.00
7662;BME280;30314;48.184;11.510;2024-03-07T04:50:32;96149.19;;;2.61;100.00
7662;BME280;30314;48.184;11.510;2024-03-07T04:52:58;96141.03;;;2.45;100.00
7662;BME280;30314;48.184;11.510;2024-03-07T04:55:25;96158.34;;;2.51;100.00
7662;BME280;30314;48.184;11.510;2024-03-07T04:57:51;96164.50;;;2.45;100.00
7662;BME280;30314;48.184;11.510;2024-03-07T05:00:18;96157.56;;;2.39;100.00
7662;BME280;30314;48.184;11.510;2024-03-07T05:02:49;96158.81;;;2.36;100.00
7662;BME280;30314;48.184;11.510;2024-03-07T05:05:18;96146.66;;;2.18;100.00
7662;BME280;30314;48.184;11.510;2024-03-07T05:07:50;96166.03;;;2.34;100.00
7662;BME280;30314;48.184;11.510;2024-03-07T05:10:17;96156.88;;;2.32;100.00
7662;BME280;30314;48.184;11.510;2024-03-07T05:12:44;96151.63;;;2.20;100.00
7662;BME280;30314;48.184;11.510;2024-03-07T05:15:11;96170.94;;;2.31;100.00
7662;BME280;30314;48.184;11.510;2024-03-07T05:17:38;96165.59;;;2.25;100.00
7662;BME280;30314;48.184;11.510;2024-03-07T05:20:06;96174.56;;;2.30;100.00
7662;BME280;30314;48.184;11.510;2024-03-07T05:22:40;96169.09;;;2.19;100.00
7662;BME280;30314;48.184;11.510;2024-03-07T05:25:19;96167.06;;;2.21;100.00
7662;BME280;30314;48.184;11.510;2024-03-07T05:27:46;96156.63;;;2.09;100.00
7662;BME280;30314;48.184;11.510;2024-03-07T05:30:13;96173.66;;;2.24;100.00
7662;BME280;30314;48.184;11.510;2024-03-07T05:32:42;96182.59;;;2.28;100.00
7662;BME280;30314;48.184;11.510;2024-03-07T05:35:09;96182.69;;;2.21;100.00
7662;BME280;30314;48.184;11.510;2024-03-07T05:37:37;96156.47;;;2.04;100.00
7662;BME280;30314;48.184;11.510;2024-03-07T05:40:08;96186.09;;;2.22;100.00
7662;BME280;30314;48.184;11.510;2024-03-07T05:42:35;96180.09;;;2.21;100.00
7662;BME280;30314;48.184;11.510;2024-03-07T05:45:01;96184.16;;;2.17;100.00
7662;BME280;30314;48.184;11.510;2024-03-07T05:47:28;96182.00;;;2.14;100.00
7662;BME280;30314;48.184;11.510;2024-03-07T05:49:55;96185.03;;;2.11;100.00
7662;BME280;30314;48.184;11.510;2024-03-07T05:52:21;96174.16;;;2.14;100.00
7662;BME280;30314;48.184;11.510;2024-03-07T05:54:48;96185.50;;;2.08;100.00
7662;BME280;30314;48.184;11.510;2024-03-07T05:57:15;96179.00;;;1.99;100.00
7662;BME280;30314;48.184;11.510;2024-03-07T05:59:41;96166.88;;;1.92;100.00
7662;BME280;30314;48.184;11.510;2024-03-07T06:02:08;96175.38;;;2.00;100.00
7662;BME280;30314;48.184;11.510;2024-03-07T06:04:35;96181.84;;;1.97;100.00
7662;BME280;30314;48.184;11.510;2024-03-07T06:07:01;96175.38;;;2.00;100.00
7662;BME280;30314;48.184;11.510;2024-03-07T06:09:28;96176.66;;;2.09;100.00
7662;BME280;30314;48.184;11.510;2024-03-07T06:11:54;96151.91;;;1.88;100.00
7662;BME280;30314;48.184;11.510;2024-03-07T06:14:21;96182.78;;;2.03;100.00
7662;BME280;30314;48.184;11.510;2024-03-07T06:16:50;96171.44;;;1.97;100.00
7662;BME280;30314;48.184;11.510;2024-03-07T06:19:19;96179.25;;;1.97;100.00
7662;BME280;30314;48.184;11.510;2024-03-07T06:21:46;96179.94;;;2.04;100.00
7662;BME280;30314;48.184;11.510;2024-03-07T06:24:13;96164.13;;;1.87;100.00
7662;BME280;30314;48.184;11.510;2024-03-07T06:26:41;96182.06;;;1.95;100.00
7662;BME280;30314;48.184;11.510;2024-03-07T06:29:14;96178.66;;;1.95;100.00
7662;BME280;30314;48.184;11.510;2024-03-07T06:31:43;96148.19;;;1.84;100.00
7662;BME280;30314;48.184;11.510;2024-03-07T06:34:09;96180.94;;;2.03;100.00
7662;BME280;30314;48.184;11.510;2024-03-07T06:36:36;96170.63;;;1.96;100.00
7662;BME280;30314;48.184;11.510;2024-03-07T06:39:03;96180.84;;;1.98;100.00
7662;BME280;30314;48.184;11.510;2024-03-07T06:41:34;96172.44;;;1.96;100.00
7662;BME280;30314;48.184;11.510;2024-03-07T06:44:01;96176.19;;;2.00;100.00
7662;BME280;30314;48.184;11.510;2024-03-07T06:46:29;96162.69;;;1.91;100.00
7662;BME280;30314;48.184;11.510;2024-03-07T06:48:55;96179.09;;;1.92;100.00
7662;BME280;30314;48.184;11.510;2024-03-07T06:51:22;96183.78;;;2.02;100.00
7662;BME280;30314;48.184;11.510;2024-03-07T06:53:49;96180.38;;;2.01;100.00
7662;BME280;30314;48.184;11.510;2024-03-07T06:56:17;96188.09;;;2.08;100.00
7662;BME280;30314;48.184;11.510;2024-03-07T06:58:44;96177.69;;;2.08;100.00
7662;BME280;30314;48.184;11.510;2024-03-07T07:01:14;96184.13;;;2.05;100.00
7662;BME280;30314;48.184;11.510;2024-03-07T07:03:46;96183.91;;;2.07;100.00
7662;BME280;30314;48.184;11.510;2024-03-07T07:06:14;96178.72;;;2.19;100.00
7662;BME280;30314;48.184;11.510;2024-03-07T07:08:41;96193.56;;;2.18;100.00
7662;BME280;30314;48.184;11.510;2024-03-07T07:11:07;96185.97;;;2.17;100.00
7662;BME280;30314;48.184;11.510;2024-03-07T07:13:34;96188.00;;;2.15;100.00
7662;BME280;30314;48.184;11.510;2024-03-07T07:16:03;96185.63;;;2.13;100.00
7662;BME280;30314;48.184;11.510;2024-03-07T07:18:30;96190.50;;;2.09;100.00
7662;BME280;30314;48.184;11.510;2024-03-07T07:20:57;96173.94;;;2.04;100.00
7662;BME280;30314;48.184;11.510;2024-03-07T07:23:24;96166.56;;;2.01;100.00
7662;BME280;30314;48.184;11.510;2024-03-07T07:25:51;96184.38;;;2.16;100.00
7662;BME280;30314;48.184;11.510;2024-03-07T07:28:18;96181.44;;;2.12;100.00
7662;BME280;30314;48.184;11.510;2024-03-07T07:30:44;96182.13;;;2.19;100.00
7662;BME280;30314;48.184;11.510;2024-03-07T07:33:12;96178.81;;;2.12;100.00
7662;BME280;30314;48.184;11.510;2024-03-07T07:35:40;96183.38;;;2.17;100.00
7662;BME280;30314;48.184;11.510;2024-03-07T07:38:07;96179.97;;;2.16;100.00
7662;BME280;30314;48.184;11.510;2024-03-07T07:40:37;96187.00;;;2.28;100.00
7662;BME280;30314;48.184;11.510;2024-03-07T07:43:03;96184.75;;;2.19;100.00
7662;BME280;30314;48.184;11.510;2024-03-07T07:45:30;96167.16;;;2.03;100.00
7662;BME280;30314;48.184;11.510;2024-03-07T13:21:48;96015.06;;;6.22;100.00
7662;BME280;30314;48.184;11.510;2024-03-07T13:24:16;96019.53;;;6.26;100.00
7662;BME280;30314;48.184;11.510;2024-03-07T13:26:51;96007.19;;;6.22;100.00
7662;BME280;30314;48.184;11.510;2024-03-07T13:29:18;95998.47;;;6.11;100.00
7662;BME280;30314;48.184;11.510;2024-03-07T13:31:51;96005.31;;;6.12;100.00
7662;BME280;30314;48.184;11.510;2024-03-07T13:34:19;96002.91;;;6.05;100.00
7662;BME280;30314;48.184;11.510;2024-03-07T13:36:46;95992.19;;;6.12;100.00
7662;BME280;30314;48.184;11.510;2024-03-07T13:39:13;96003.44;;;6.07;100.00
7662;BME280;30314;48.184;11.510;2024-03-07T13:41:41;96017.44;;;6.23;100.00
7662;BME280;30314;48.184;11.510;2024-03-07T13:44:37;96014.22;;;6.11;100.00
7662;BME280;30314;48.184;11.510;2024-03-07T13:47:04;96005.59;;;6.15;100.00
7662;BME280;30314;48.184;11.510;2024-03-07T13:49:33;95985.00;;;5.97;100.00
7662;BME280;30314;48.184;11.510;2024-03-07T13:52:00;95995.03;;;6.05;100.00
7662;BME280;30314;48.184;11.510;2024-03-07T13:54:36;95993.69;;;6.02;100.00
7662;BME280;30314;48.184;11.510;2024-03-07T14:06:01;96000.22;;;6.00;100.00
7662;BME280;30314;48.184;11.510;2024-03-07T14:11:50;96007.63;;;6.08;100.00
7662;BME280;30314;48.184;11.510;2024-03-07T14:14:49;95989.78;;;6.05;100.00
7662;BME280;30314;48.184;11.510;2024-03-07T14:32:04;95984.00;;;6.03;100.00
7662;BME280;30314;48.184;11.510;2024-03-07T14:37:04;95994.44;;;5.98;100.00
7662;BME280;30314;48.184;11.510;2024-03-07T14:39:36;95983.88;;;5.87;100.00
7662;BME280;30314;48.184;11.510;2024-03-07T14:42:06;95988.56;;;5.80;100.00
7662;BME280;30314;48.184;11.510;2024-03-07T14:44:42;95989.13;;;5.87;100.00
7662;BME280;30314;48.184;11.510;2024-03-07T14:47:09;95988.56;;;5.80;100.00
7662;BME280;30314;48.184;11.510;2024-03-07T14:49:38;95993.56;;;5.82;100.00
7662;BME280;30314;48.184;11.510;2024-03-07T14:52:05;95967.72;;;5.58;100.00
7662;BME280;30314;48.184;11.510;2024-03-07T14:54:38;95992.16;;;5.69;100.00
7662;BME280;30314;48.184;11.510;2024-03-07T14:57:05;95988.25;;;5.71;100.00
7662;BME280;30314;48.184;11.510;2024-03-07T14:59:32;95991.41;;;5.73;100.00
7662;BME280;30314;48.184;11.510;2024-03-07T15:01:59;95985.13;;;5.74;100.00
7662;BME280;30314;48.184;11.510;2024-03-07T15:04:27;95988.75;;;5.68;100.00
7662;BME280;30314;48.184;11.510;2024-03-07T15:06:59;95989.00;;;5.67;100.00
7662;BME280;30314;48.184;11.510;2024-03-07T15:09:28;95984.84;;;5.71;100.00
7662;BME280;30314;48.184;11.510;2024-03-07T15:12:00;95986.41;;;5.72;100.00
7662;BME280;30314;48.184;11.510;2024-03-07T15:14:27;95978.00;;;5.70;100.00
7662;BME280;30314;48.184;11.510;2024-03-07T15:17:04;95999.47;;;5.67;100.00
7662;BME280;30314;48.184;11.510;2024-03-07T15:19:32;95990.03;;;5.66;100.00
7662;BME280;30314;48.184;11.510;2024-03-07T15:22:01;95993.50;;;5.71;100.00
7662;BME280;30314;48.184;11.510;2024-03-07T15:24:30;95987.63;;;5.59;100.00
7662;BME280;30314;48.184;11.510;2024-03-07T15:26:57;95986.88;;;5.63;100.00
7662;BME280;30314;48.184;11.510;2024-03-07T15:29:24;95983.47;;;5.63;100.00
7662;BME280;30314;48.184;11.510;2024-03-07T15:31:51;95987.16;;;5.67;100.00
7662;BME280;30314;48.184;11.510;2024-03-07T15:34:17;95986.88;;;5.63;100.00
7662;BME280;30314;48.184;11.510;2024-03-07T15:36:44;95982.69;;;5.62;100.00
7662;BME280;30314;48.184;11.510;2024-03-07T15:39:10;95974.81;;;5.62;100.00
7662;BME280;30314;48.184;11.510;2024-03-07T15:41:46;95979.81;;;5.64;100.00
7662;BME280;30314;48.184;11.510;2024-03-07T15:44:14;95985.84;;;5.64;100.00
7662;BME280;30314;48.184;11.510;2024-03-07T15:46:41;95984.81;;;5.66;100.00
7662;BME280;30314;48.184;11.510;2024-03-07T15:49:08;95972.47;;;5.66;100.00
7662;BME280;30314;48.184;11.510;2024-03-07T15:51:35;95958.81;;;5.59;100.00
7662;BME280;30314;48.184;11.510;2024-03-07T15:54:02;95948.50;;;5.47;100.00
7662;BME280;30314;48.184;11.510;2024-03-07T15:56:31;95970.53;;;5.51;100.00
7662;BME280;30314;48.184;11.510;2024-03-07T15:58:57;95962.59;;;5.41;100.00
7662;BME280;30314;48.184;11.510;2024-03-07T16:01:24;95967.88;;;5.46;100.00
7662;BME280;30314;48.184;11.510;2024-03-07T16:03:50;95959.22;;;5.45;100.00
7662;BME280;30314;48.184;11.510;2024-03-07T16:06:17;95966.63;;;5.54;100.00
7662;BME280;30314;48.184;11.510;2024-03-07T16:08:45;95960.50;;;5.43;100.00
7662;BME280;30314;48.184;11.510;2024-03-07T16:11:12;95969.66;;;5.40;100.00
7662;BME280;30314;48.184;11.510;2024-03-07T16:13:39;95968.66;;;5.46;100.00
7662;BME280;30314;48.184;11.510;2024-03-07T16:16:06;95961.06;;;5.45;100.00
7662;BME280;30314;48.184;11.510;2024-03-07T16:18:33;95956.81;;;5.39;100.00
7662;BME280;30314;48.184;11.510;2024-03-07T16:21:00;95964.09;;;5.31;100.00
7662;BME280;30314;48.184;11.510;2024-03-07T16:23:27;95967.81;;;5.35;100.00
7662;BME280;30314;48.184;11.510;2024-03-07T16:25:53;95964.88;;;5.32;100.00
7662;BME280;30314;48.184;11.510;2024-03-07T16:28:21;95962.50;;;5.30;100.00
7662;BME280;30314;48.184;11.510;2024-03-07T16:30:53;95973.66;;;5.48;100.00
7662;BME280;30314;48.184;11.510;2024-03-07T16:33:22;95946.69;;;5.20;100.00
7662;BME280;30314;48.184;11.510;2024-03-07T16:35:51;95970.31;;;5.25;100.00
7662;BME280;30314;48.184;11.510;2024-03-07T16:38:17;95962.47;;;5.25;100.00
7662;BME280;30314;48.184;11.510;2024-03-07T16:40:44;95971.94;;;5.31;100.00
7662;BME280;30314;48.184;11.510;2024-03-07T16:43:11;95948.75;;;5.13;100.00
7662;BME280;30314;48.184;11.510;2024-03-07T16:45:40;95955.56;;;5.14;100.00
7662;BME280;30314;48.184;11.510;2024-03-07T16:48:07;95975.56;;;5.25;100.00
7662;BME280;30314;48.184;11.510;2024-03-07T16:50:36;95977.06;;;5.21;100.00
7662;BME280;30314;48.184;11.510;2024-03-07T16:53:07;95978.09;;;5.15;100.00
7662;BME280;30314;48.184;11.510;2024-03-07T16:55:35;95967.56;;;5.10;100.00
7662;BME280;30314;48.184;11.510;2024-03-07T16:58:06;95978.59;;;5.12;100.00
7662;BME280;30314;48.184;11.510;2024-03-07T17:00:39;95972.03;;;5.14;100.00
7662;BME280;30314;48.184;11.510;2024-03-07T17:03:08;95978.59;;;5.12;100.00
7662;BME280;30314;48.184;11.510;2024-03-07T17:05:38;95988.44;;;5.04;100.00
7662;BME280;30314;48.184;11.510;2024-03-07T17:08:10;95979.00;;;5.03;100.00
7662;BME280;30314;48.184;11.510;2024-03-07T17:10:42;95977.03;;;5.16;100.00
7662;BME280;30314;48.184;11.510;2024-03-07T17:13:10;95979.56;;;5.05;100.00
7662;BME280;30314;48.184;11.510;2024-03-07T17:15:38;95976.41;;;5.03;100.00
7662;BME280;30314;48.184;11.510;2024-03-07T17:18:06;95987.91;;;5.02;100.00
7662;BME280;30314;48.184;11.510;2024-03-07T17:20:33;95988.13;;;5.01;100.00
7662;BME280;30314;48.184;11.510;2024-03-07T17:23:00;95987.91;;;5.02;100.00
7662;BME280;30314;48.184;11.510;2024-03-07T17:25:27;95989.69;;;4.97;100.00
7662;BME280;30314;48.184;11.510;2024-03-07T17:27:56;95992.97;;;4.87;100.00
7662;BME280;30314;48.184;11.510;2024-03-07T17:30:27;95989.44;;;4.98;100.00
7662;BME280;30314;48.184;11.510;2024-03-07T17:32:55;95984.72;;;4.95;100.00
7662;BME280;30314;48.184;11.510;2024-03-07T17:35:25;95994.56;;;4.88;100.00
7662;BME280;30314;48.184;11.510;2024-03-07T17:37:55;95987.91;;;4.75;100.00
7662;BME280;30314;48.184;11.510;2024-03-07T17:40:21;95985.50;;;4.73;100.00
7662;BME280;30314;48.184;11.510;2024-03-07T17:42:53;95996.53;;;4.75;100.00
7662;BME280;30314;48.184;11.510;2024-03-07T17:45:22;95989.41;;;4.71;100.00
7662;BME280;30314;48.184;11.510;2024-03-07T17:47:50;95991.66;;;4.62;100.00
7662;BME280;30314;48.184;11.510;2024-03-07T17:50:25;95993.25;;;4.63;100.00
7662;BME280;30314;48.184;11.510;2024-03-07T17:53:02;96000.03;;;4.64;100.00
7662;BME280;30314;48.184;11.510;2024-03-07T17:55:34;96007.94;;;4.47;100.00
7662;BME280;30314;48.184;11.510;2024-03-07T17:58:01;96001.56;;;4.60;100.00
7662;BME280;30314;48.184;11.510;2024-03-07T18:00:30;95998.78;;;4.44;100.00
7662;BME280;30314;48.184;11.510;2024-03-07T18:03:02;95994.44;;;4.33;100.00
7662;BME280;30314;48.184;11.510;2024-03-07T18:05:34;95996.34;;;4.38;100.00
7662;BME280;30314;48.184;11.510;2024-03-07T18:08:05;95997.47;;;4.25;100.00
7662;BME280;30314;48.184;11.510;2024-03-07T18:11:03;96002.69;;;4.25;100.00
7662;BME280;30314;48.184;11.510;2024-03-07T18:13:33;95978.47;;;4.12;100.00
7662;BME280;30314;48.184;11.510;2024-03-07T18:15:59;95971.06;;;4.04;100.00
7662;BME280;30314;48.184;11.510;2024-03-07T18:18:26;95981.69;;;3.97;100.00
7662;BME280;30314;48.184;11.510;2024-03-07T18:20:53;95977.72;;;3.94;100.00
7662;BME280;30314;48.184;11.510;2024-03-07T18:23:20;95976.69;;;3.96;100.00
7662;BME280;30314;48.184;11.510;2024-03-07T18:25:47;96003.47;;;4.03;100.00
7662;BME280;30314;48.184;11.510;2024-03-07T18:28:17;95990.63;;;4.01;100.00
7662;BME280;30314;48.184;11.510;2024-03-07T18:30:47;95986.09;;;3.97;100.00
7662;BME280;30314;48.184;11.510;2024-03-07T18:33:14;96001.25;;;3.94;100.00
7662;BME280;30314;48.184;11.510;2024-03-07T18:35:44;95995.22;;;3.94;100.00
7662;BME280;30314;48.184;11.510;2024-03-07T18:38:12;95997.03;;;3.93;100.00
7662;BME280;30314;48.184;11.510;2024-03-07T18:40:40;95994.13;;;3.90;100.00
7662;BME280;30314;48.184;11.510;2024-03-07T18:43:07;95996.50;;;3.91;100.00
7662;BME280;30314;48.184;11.510;2024-03-07T18:45:35;95997.59;;;3.96;100.00
7662;BME280;30314;48.184;11.510;2024-03-07T18:48:04;95997.28;;;3.92;100.00
7662;BME280;30314;48.184;11.510;2024-03-07T18:50:34;95997.53;;;3.90;100.00
7662;BME280;30314;48.184;11.510;2024-03-07T18:53:12;95986.81;;;3.75;100.00
7662;BME280;30314;48.184;11.510;2024-03-07T18:55:42;95992.38;;;3.78;100.00
7662;BME280;30314;48.184;11.510;2024-03-07T18:58:13;95984.22;;;3.75;100.00
7662;BME280;30314;48.184;11.510;2024-03-07T19:00:40;95988.34;;;3.71;100.00
7662;BME280;30314;48.184;11.510;2024-03-07T19:03:17;95990.09;;;3.82;100.00
7662;BME280;30314;48.184;11.510;2024-03-07T19:05:47;95979.47;;;3.72;100.00
7662;BME280;30314;48.184;11.510;2024-03-07T19:08:15;95979.94;;;3.51;100.00